Time;durP1;ratioP1;P1;durP2;ratioP2;P2;SDS_P1;SDS_P2;PMS_P1;PMS_P2;Temp;Humidity;BMP_temperature;BMP_pressure;BME280_temperature;BME280_humidity;BME280_pressure;Samples;Min_cycle;Max_cycle;Signal;HPM_P1;HPM_P2
2022/08/30 00:02:59;;;;;;;4.53;3.58;;;16.20;99.90;;;;;;5040423;28;20072;-73
2022/08/30 00:05:29;;;;;;;4.32;3.67;;;16.20;99.90;;;;;;5065650;28;20041;-71
2022/08/30 00:07:57;;;;;;;4.25;3.53;;;16.30;99.90;;;;;;5064202;28;20037;-70
2022/08/30 00:10:23;;;;;;;;;;;16.20;99.90;;;;;;5067929;28;20079;-70
2022/08/30 00:12:50;;;;;;;7.35;3.95;;;16.30;99.90;;;;;;5061883;28;20287;-70
2022/08/30 00:15:17;;;;;;;4.43;4.03;;;16.30;99.90;;;;;;5064564;28;20049;-70
2022/08/30 00:17:43;;;;;;;8.95;4.25;;;16.30;99.90;;;;;;5067844;28;20056;-71
2022/08/30 00:20:12;;;;;;;4.32;3.92;;;16.30;99.90;;;;;;5067389;28;20148;-71
2022/08/30 00:22:38;;;;;;;4.63;3.67;;;16.20;99.90;;;;;;5067021;28;20115;-71
2022/08/30 00:25:04;;;;;;;6.78;3.47;;;16.30;99.90;;;;;;5069108;28;20116;-71
2022/08/30 00:27:30;;;;;;;4.43;3.67;;;16.30;99.90;;;;;;5068158;28;20098;-71
2022/08/30 00:29:56;;;;;;;7.65;3.67;;;16.30;99.90;;;;;;5068287;28;20040;-71
2022/08/30 00:32:22;;;;;;;5.70;3.65;;;16.30;99.90;;;;;;5066595;28;20055;-71
2022/08/30 00:34:49;;;;;;;5.03;3.67;;;16.30;99.90;;;;;;5051153;28;20039;-71
2022/08/30 00:37:15;;;;;;;5.25;3.72;;;16.30;99.90;;;;;;5067807;28;20080;-71
2022/08/30 00:39:41;;;;;;;4.72;3.50;;;16.20;99.90;;;;;;5068329;28;20080;-71
2022/08/30 00:42:08;;;;;;;4.07;3.50;;;16.20;99.90;;;;;;5064077;28;20119;-71
2022/08/30 00:44:34;;;;;;;5.22;3.65;;;16.20;99.90;;;;;;5068710;28;20039;-71
2022/08/30 00:47:02;;;;;;;5.10;3.28;;;16.20;99.90;;;;;;5066898;28;20131;-71
2022/08/30 00:49:28;;;;;;;5.57;3.33;;;16.20;99.90;;;;;;5068050;28;20090;-74
2022/08/30 00:51:55;;;;;;;6.38;3.55;;;16.20;99.90;;;;;;5069757;28;20051;-74
2022/08/30 00:54:22;;;;;;;5.25;3.60;;;16.20;99.90;;;;;;5072551;28;20491;-74
2022/08/30 00:56:48;;;;;;;4.47;3.23;;;16.20;99.90;;;;;;5077254;28;20037;-74
2022/08/30 00:59:14;;;;;;;3.45;3.15;;;16.20;99.90;;;;;;5072193;28;20033;-73
2022/08/30 01:01:41;;;;;;;4.72;3.35;;;16.20;99.90;;;;;;5066736;28;20051;-73
2022/08/30 01:04:09;;;;;;;4.37;3.47;;;16.10;99.90;;;;;;5048890;28;20403;-72
2022/08/30 01:06:35;;;;;;;5.32;3.30;;;16.10;99.90;;;;;;5066224;28;20044;-72
2022/08/30 01:09:03;;;;;;;6.07;3.42;;;16.10;99.90;;;;;;5069168;28;20048;-72
2022/08/30 01:11:31;;;;;;;3.92;3.53;;;16.10;99.90;;;;;;5064894;28;20040;-72
2022/08/30 01:13:58;;;;;;;4.13;3.50;;;16.00;99.90;;;;;;5065072;28;20045;-71
2022/08/30 01:16:24;;;;;;;6.93;3.72;;;16.00;99.90;;;;;;5066419;28;20071;-71
2022/08/30 01:18:53;;;;;;;3.40;3.08;;;15.90;99.90;;;;;;5066889;28;20055;-71
2022/08/30 01:21:40;;;;;;;5.07;4.00;;;15.90;99.90;;;;;;5062341;28;20037;-73
2022/08/30 01:24:07;;;;;;;;;;;15.90;99.90;;;;;;5067022;28;20051;-73
2022/08/30 01:26:35;;;;;;;8.27;3.73;;;15.90;99.90;;;;;;5064975;28;19928;-73
2022/08/30 01:29:05;;;;;;;6.13;3.60;;;15.80;99.90;;;;;;5068599;28;20041;-73
2022/08/30 01:31:33;;;;;;;5.07;3.42;;;15.80;99.90;;;;;;5065302;28;20437;-73
2022/08/30 01:34:00;;;;;;;5.32;3.70;;;15.70;99.90;;;;;;5067753;28;20037;-72
2022/08/30 01:36:26;;;;;;;5.07;4.22;;;15.70;99.90;;;;;;5066345;28;20041;-72
2022/08/30 01:38:55;;;;;;;6.50;4.05;;;15.70;99.90;;;;;;5064776;28;20098;-72
2022/08/30 01:41:27;;;;;;;3.55;3.25;;;15.70;99.90;;;;;;5065401;28;20048;-71
2022/08/30 01:43:55;;;;;;;5.18;3.60;;;15.60;99.90;;;;;;5067581;28;20114;-72
2022/08/30 01:46:23;;;;;;;4.05;3.40;;;15.60;99.90;;;;;;5066596;28;20039;-73
2022/08/30 01:48:49;;;;;;;7.90;4.00;;;15.50;99.90;;;;;;5069230;28;20091;-71
2022/08/30 01:51:15;;;;;;;5.25;3.95;;;15.50;99.90;;;;;;5067308;28;20434;-71
2022/08/30 01:53:42;;;;;;;4.35;3.92;;;15.50;99.90;;;;;;5049691;28;20114;-71
2022/08/30 01:56:09;;;;;;;4.72;4.18;;;15.40;99.90;;;;;;5065910;28;20045;-71
2022/08/30 01:58:36;;;;;;;5.60;3.90;;;15.40;99.90;;;;;;5064267;28;20036;-71
2022/08/30 02:01:05;;;;;;;5.10;3.83;;;15.40;99.90;;;;;;5070270;28;20306;-72
2022/08/30 02:03:33;;;;;;;5.40;3.83;;;15.40;99.90;;;;;;5069891;28;20097;-72
2022/08/30 02:06:04;;;;;;;8.52;4.20;;;15.40;99.90;;;;;;5070425;28;20040;-73
2022/08/30 02:08:32;;;;;;;4.18;3.60;;;15.20;99.90;;;;;;5051908;28;20044;-73
2022/08/30 02:10:58;;;;;;;4.28;3.53;;;15.20;99.90;;;;;;5068714;28;20028;-73
2022/08/30 02:13:25;;;;;;;5.75;4.10;;;15.20;99.90;;;;;;5068384;28;20040;-73
2022/08/30 02:15:53;;;;;;;4.83;4.30;;;13.70;99.90;;;;;;5069278;28;20037;-73
2022/08/30 02:18:19;;;;;;;6.30;4.30;;;15.20;99.90;;;;;;5070534;28;20048;-73
2022/08/30 02:20:45;;;;;;;6.97;4.35;;;15.20;99.90;;;;;;5071378;28;20036;-72
2022/08/30 02:23:10;;;;;;;6.63;4.18;;;15.10;99.90;;;;;;5070853;28;20040;-72
2022/08/30 02:25:36;;;;;;;4.72;4.20;;;15.10;99.90;;;;;;5069361;28;20049;-72
2022/08/30 02:28:03;;;;;;;4.78;4.18;;;15.10;99.90;;;;;;5062830;28;20045;-71
2022/08/30 02:30:29;;;;;;;5.68;4.07;;;15.10;99.90;;;;;;5064637;28;20044;-71
2022/08/30 02:32:54;;;;;;;6.03;4.97;;;15.10;99.90;;;;;;5068798;28;20157;-71
2022/08/30 02:35:20;;;;;;;6.35;4.70;;;15.00;99.90;;;;;;5036503;28;20044;-71
2022/08/30 02:37:46;;;;;;;5.05;4.05;;;15.00;99.90;;;;;;5068283;28;20519;-73
2022/08/30 02:40:11;;;;;;;4.75;4.10;;;15.00;99.90;;;;;;5114406;22;20414;-50
2022/08/30 02:42:37;;;;;;;4.65;4.18;;;15.00;99.90;;;;;;5060841;28;20055;-53
2022/08/30 02:45:03;;;;;;;6.03;4.40;;;14.90;99.90;;;;;;5058984;28;20033;-50
2022/08/30 02:47:29;;;;;;;4.97;4.57;;;14.90;99.90;;;;;;5053230;28;20029;-51
2022/08/30 02:49:54;;;;;;;5.53;4.50;;;14.90;99.90;;;;;;5063109;28;20437;-52
2022/08/30 02:52:20;;;;;;;5.28;4.78;;;14.80;99.90;;;;;;5066754;28;21346;-53
2022/08/30 02:54:46;;;;;;;4.95;4.45;;;14.80;99.90;;;;;;5062714;28;20409;-52
2022/08/30 02:57:12;;;;;;;4.75;4.30;;;14.80;99.90;;;;;;5062501;28;20041;-52
2022/08/30 02:59:42;;;;;;;5.93;4.60;;;14.80;99.90;;;;;;5062786;28;20052;-49
2022/08/30 03:02:09;;;;;;;6.00;5.40;;;14.80;99.90;;;;;;5065646;28;20060;-51
2022/08/30 03:04:35;;;;;;;5.28;4.50;;;14.70;99.90;;;;;;5059286;28;20040;-50
2022/08/30 03:07:00;;;;;;;7.03;4.70;;;14.80;99.90;;;;;;5059629;28;20490;-50
2022/08/30 03:09:26;;;;;;;5.00;4.35;;;14.70;99.90;;;;;;5061007;28;20071;-52
2022/08/30 03:11:52;;;;;;;4.68;4.28;;;14.70;99.90;;;;;;5055942;28;20410;-50
2022/08/30 03:14:17;;;;;;;4.60;4.20;;;14.70;99.90;;;;;;5064462;28;20045;-53
2022/08/30 03:16:43;;;;;;;8.23;4.63;;;14.70;99.90;;;;;;5060291;28;20075;-54
2022/08/30 03:19:09;;;;;;;6.75;5.00;;;14.70;99.90;;;;;;5056064;28;20032;-49
2022/08/30 03:21:36;;;;;;;6.78;4.93;;;14.70;99.90;;;;;;5064703;28;20456;-50
2022/08/30 03:24:02;;;;;;;5.68;5.13;;;14.70;99.90;;;;;;5064174;28;20393;-49
2022/08/30 03:26:27;;;;;;;6.00;5.07;;;14.60;99.90;;;;;;5062421;28;20040;-53
2022/08/30 03:28:53;;;;;;;5.25;4.80;;;14.60;99.90;;;;;;5063681;28;20033;-51
2022/08/30 03:31:19;;;;;;;5.88;5.28;;;14.60;99.90;;;;;;5066322;28;20044;-48
2022/08/30 03:33:44;;;;;;;7.05;5.25;;;14.60;99.90;;;;;;5032384;28;20048;-50
2022/08/30 03:36:10;;;;;;;6.03;4.90;;;14.60;99.90;;;;;;5053019;28;20076;-52
2022/08/30 03:38:37;;;;;;;7.68;5.30;;;14.60;99.90;;;;;;5058227;28;20041;-52
2022/08/30 03:41:04;;;;;;;5.90;5.28;;;14.50;99.90;;;;;;5044852;28;20077;-51
2022/08/30 03:43:32;;;;;;;6.15;5.38;;;14.50;99.90;;;;;;5043076;28;20410;-49
2022/08/30 03:45:59;;;;;;;6.65;5.75;;;14.50;99.90;;;;;;5044257;28;20498;-54
2022/08/30 03:48:25;;;;;;;6.95;5.93;;;14.40;99.90;;;;;;5041535;28;20035;-49
2022/08/30 03:50:50;;;;;;;6.57;5.97;;;14.40;99.90;;;;;;5042870;28;20041;-52
2022/08/30 03:53:16;;;;;;;7.22;5.88;;;14.40;99.90;;;;;;5048569;28;20460;-48
2022/08/30 03:55:42;;;;;;;6.20;5.57;;;14.30;99.90;;;;;;5046682;28;20491;-51
2022/08/30 03:58:07;;;;;;;6.78;6.10;;;14.30;99.90;;;;;;5045530;28;20037;-51
2022/08/30 04:00:34;;;;;;;5.82;5.32;;;14.20;99.90;;;;;;5044732;28;20399;-51
2022/08/30 04:02:59;;;;;;;7.32;6.05;;;14.20;99.90;;;;;;5047605;28;20064;-51
2022/08/30 04:05:26;;;;;;;6.00;5.50;;;14.20;99.90;;;;;;5044754;28;20074;-51
2022/08/30 04:07:51;;;;;;;6.43;5.53;;;14.10;99.90;;;;;;5044003;28;20508;-51
2022/08/30 04:10:20;;;;;;;6.93;5.65;;;14.10;99.90;;;;;;5046842;28;20036;-53
2022/08/30 04:12:46;;;;;;;9.20;6.07;;;14.10;99.90;;;;;;5046771;28;20452;-50
2022/08/30 04:15:13;;;;;;;5.93;5.43;;;14.00;99.90;;;;;;5044935;28;20079;-52
2022/08/30 04:17:38;;;;;;;5.53;5.03;;;14.00;99.90;;;;;;5043962;28;21191;-48
2022/08/30 04:20:05;;;;;;;6.75;5.90;;;14.00;99.90;;;;;;5022224;28;20072;-50
2022/08/30 04:22:31;;;;;;;8.60;5.90;;;14.00;99.90;;;;;;5026590;28;20578;-48
2022/08/30 04:24:56;;;;;;;6.57;5.72;;;13.90;99.90;;;;;;5046373;28;20119;-49
2022/08/30 04:27:22;;;;;;;6.07;5.50;;;13.80;99.90;;;;;;5044170;28;20040;-50
2022/08/30 04:29:48;;;;;;;7.13;6.00;;;13.90;99.90;;;;;;5042725;28;20045;-52
2022/08/30 04:32:15;;;;;;;6.05;5.50;;;13.90;99.90;;;;;;5049618;28;20075;-52
2022/08/30 04:34:40;;;;;;;6.90;5.55;;;13.80;99.90;;;;;;5047567;28;20101;-51
2022/08/30 04:37:06;;;;;;;6.68;5.28;;;13.80;99.90;;;;;;5045092;28;20040;-51
2022/08/30 04:39:31;;;;;;;7.03;5.82;;;13.70;99.90;;;;;;5042476;28;20051;-50
2022/08/30 04:41:57;;;;;;;6.35;5.75;;;13.70;99.90;;;;;;5042025;28;20077;-51
2022/08/30 04:44:24;;;;;;;7.50;5.80;;;13.70;99.90;;;;;;5037991;28;20041;-52
2022/08/30 04:46:50;;;;;;;9.13;6.47;;;13.70;99.90;;;;;;5041254;28;20137;-51
2022/08/30 04:49:16;;;;;;;6.65;6.00;;;13.70;99.90;;;;;;5035722;28;20153;-52
2022/08/30 04:51:41;;;;;;;7.57;6.07;;;13.70;99.90;;;;;;5042834;28;20045;-53
2022/08/30 04:54:07;;;;;;;8.45;5.95;;;13.70;99.90;;;;;;5029763;28;20029;-53
2022/08/30 04:56:33;;;;;;;7.03;5.82;;;13.70;99.90;;;;;;5045747;28;20048;-50
2022/08/30 04:58:59;;;;;;;6.78;6.03;;;13.60;99.90;;;;;;5041114;28;20045;-51
2022/08/30 05:01:30;;;;;;;6.68;6.00;;;13.60;99.90;;;;;;5046790;28;20171;-52
2022/08/30 05:03:57;;;;;;;9.07;6.32;;;13.60;99.90;;;;;;5045698;28;20458;-52
2022/08/30 05:06:26;;;;;;;6.40;5.80;;;13.70;99.90;;;;;;5045107;28;20512;-53
2022/08/30 05:08:52;;;;;;;7.47;6.50;;;13.70;99.90;;;;;;5045587;28;20056;-53
2022/08/30 05:11:18;;;;;;;7.53;6.53;;;13.70;99.90;;;;;;5046141;28;20087;-54
2022/08/30 05:13:44;;;;;;;7.30;6.35;;;13.70;99.90;;;;;;5045675;28;20041;-51
2022/08/30 05:16:16;;;;;;;8.25;6.55;;;13.70;99.90;;;;;;5041540;28;20040;-51
2022/08/30 05:18:45;;;;;;;8.82;6.65;;;13.70;99.90;;;;;;5045718;28;20116;-51
2022/08/30 05:21:14;;;;;;;8.05;7.10;;;13.70;99.90;;;;;;5044881;28;20045;-52
2022/08/30 05:23:41;;;;;;;6.97;6.38;;;13.70;99.90;;;;;;5047708;28;20037;-52
2022/08/30 05:26:10;;;;;;;7.83;7.07;;;13.80;99.90;;;;;;5040187;28;20041;-52
2022/08/30 05:28:36;;;;;;;8.98;6.80;;;13.70;99.90;;;;;;5047687;28;20513;-51
2022/08/30 05:31:02;;;;;;;7.28;6.55;;;13.80;99.90;;;;;;5041862;28;20045;-52
2022/08/30 05:33:28;;;;;;;7.35;6.65;;;13.80;99.90;;;;;;5044406;28;20037;-53
2022/08/30 05:35:54;;;;;;;6.60;6.00;;;13.90;99.90;;;;;;5048898;28;20056;-52
2022/08/30 05:38:19;;;;;;;8.77;5.93;;;13.90;99.90;;;;;;5050052;28;20047;-52
2022/08/30 05:40:45;;;;;;;7.63;6.25;;;13.90;99.90;;;;;;5046265;28;20041;-54
2022/08/30 05:43:13;;;;;;;7.25;6.50;;;14.00;99.90;;;;;;5050977;28;20131;-53
2022/08/30 05:45:38;;;;;;;9.02;6.47;;;14.00;99.90;;;;;;5048332;28;20128;-51
2022/08/30 05:48:04;;;;;;;10.77;6.40;;;14.10;99.90;;;;;;5047755;28;20179;-54
2022/08/30 05:50:30;;;;;;;6.63;6.00;;;14.10;99.90;;;;;;5045643;28;20398;-53
2022/08/30 05:52:55;;;;;;;6.85;6.15;;;14.20;99.90;;;;;;5048840;28;20037;-53
2022/08/30 05:55:21;;;;;;;7.60;6.35;;;15.00;99.90;;;;;;5048857;28;20510;-53
2022/08/30 05:57:46;;;;;;;6.03;5.38;;;16.00;99.90;;;;;;5032053;28;20044;-52
2022/08/30 06:00:16;;;;;;;5.97;5.40;;;16.80;99.90;;;;;;5047074;28;20033;-50
2022/08/30 06:02:42;;;;;;;5.90;5.30;;;17.50;99.90;;;;;;5048462;28;20045;-52
2022/08/30 06:05:09;;;;;;;7.07;5.05;;;18.10;99.90;;;;;;5045575;28;20060;-53
2022/08/30 06:07:35;;;;;;;5.20;4.60;;;18.70;99.90;;;;;;5047061;28;20041;-49
2022/08/30 06:10:01;;;;;;;5.22;4.70;;;19.30;99.90;;;;;;5049113;28;20434;-47
2022/08/30 06:12:27;;;;;;;4.95;4.10;;;19.60;99.90;;;;;;5048230;28;20029;-53
2022/08/30 06:14:52;;;;;;;5.15;4.40;;;20.00;99.90;;;;;;5044292;28;20478;-51
2022/08/30 06:17:18;;;;;;;5.20;4.70;;;20.40;99.90;;;;;;5049848;28;20135;-51
2022/08/30 06:19:43;;;;;;;4.07;3.65;;;20.50;99.90;;;;;;5044019;28;20483;-49
2022/08/30 06:22:09;;;;;;;5.78;4.05;;;20.80;99.90;;;;;;5047783;28;20042;-50
2022/08/30 06:24:35;;;;;;;7.05;4.10;;;20.80;99.90;;;;;;5045993;28;20226;-54
2022/08/30 06:27:01;;;;;;;9.27;3.95;;;20.90;99.90;;;;;;5037360;28;20046;-48
2022/08/30 06:29:27;;;;;;;4.70;4.03;;;21.30;99.90;;;;;;5035575;28;20121;-54
2022/08/30 06:31:55;;;;;;;5.93;4.07;;;21.20;99.90;;;;;;5043648;28;20041;-50
2022/08/30 06:34:20;;;;;;;6.43;3.80;;;21.60;99.90;;;;;;5050162;28;20034;-54
2022/08/30 06:36:46;;;;;;;5.68;3.95;;;21.80;99.90;;;;;;5048106;28;20049;-49
2022/08/30 06:39:12;;;;;;;5.30;3.65;;;21.60;99.90;;;;;;5049180;28;20033;-50
2022/08/30 06:41:38;;;;;;;3.95;3.63;;;21.70;99.90;;;;;;5045123;28;20049;-54
2022/08/30 06:44:05;;;;;;;6.20;3.50;;;21.40;99.90;;;;;;5047604;28;20049;-52
2022/08/30 06:46:33;;;;;;;6.35;4.00;;;21.50;99.90;;;;;;5043121;28;20045;-52
2022/08/30 06:49:00;;;;;;;4.90;3.53;;;21.20;99.90;;;;;;5049572;28;20480;-52
2022/08/30 06:51:33;;;;;;;7.10;3.75;;;21.50;99.90;;;;;;5048306;28;20496;-52
2022/08/30 06:54:00;;;;;;;5.18;3.55;;;21.40;99.90;;;;;;5042672;28;20068;-50
2022/08/30 06:56:26;;;;;;;6.53;3.90;;;21.80;99.90;;;;;;5041267;28;20702;-51
2022/08/30 06:58:52;;;;;;;6.25;3.90;;;21.90;99.90;;;;;;5038364;28;20159;-52
2022/08/30 07:01:21;;;;;;;4.22;3.40;;;21.60;99.90;;;;;;5045718;28;20067;-52
2022/08/30 07:03:48;;;;;;;3.60;3.25;;;21.60;99.90;;;;;;5037971;28;20503;-53
2022/08/30 07:06:14;;;;;;;3.95;3.05;;;21.90;99.90;;;;;;5048881;28;20087;-50
2022/08/30 07:08:40;;;;;;;7.28;2.97;;;21.70;99.90;;;;;;5047898;28;20044;-52
2022/08/30 07:11:06;;;;;;;4.38;2.75;;;21.80;99.90;;;;;;5046448;28;20053;-54
2022/08/30 07:13:33;;;;;;;2.95;2.47;;;21.70;99.90;;;;;;5040713;28;20044;-54
2022/08/30 07:15:58;;;;;;;3.63;2.67;;;21.80;99.90;;;;;;5046858;28;20045;-53
2022/08/30 07:21:12;;;;;;;2.72;2.28;;;21.20;99.90;;;;;;5048238;28;20048;-52
2022/08/30 07:23:37;;;;;;;3.30;2.20;;;20.50;99.90;;;;;;5046220;28;20045;-54
2022/08/30 07:26:06;;;;;;;5.25;2.50;;;20.00;99.90;;;;;;5049041;28;20478;-54
2022/08/30 07:28:32;;;;;;;2.85;2.30;;;19.70;99.90;;;;;;5040917;28;20049;-53
2022/08/30 07:30:58;;;;;;;4.85;2.08;;;19.50;99.90;;;;;;5043786;28;20049;-53
2022/08/30 07:33:23;;;;;;;4.22;1.80;;;19.10;99.90;;;;;;5038141;28;20043;-53
2022/08/30 07:35:49;;;;;;;4.18;1.63;;;19.00;99.90;;;;;;5047201;28;20090;-54
2022/08/30 07:38:15;;;;;;;5.47;1.95;;;18.70;99.90;;;;;;5045850;28;20037;-50
2022/08/30 07:40:40;;;;;;;6.43;1.80;;;18.70;99.90;;;;;;5045264;28;20049;-53
2022/08/30 07:43:06;;;;;;;2.35;1.58;;;18.80;99.90;;;;;;5034304;28;20391;-55
2022/08/30 07:45:32;;;;;;;1.70;1.35;;;18.90;99.90;;;;;;5044612;28;20047;-54
2022/08/30 07:47:57;;;;;;;2.92;1.40;;;18.70;99.90;;;;;;5044404;28;20095;-54
2022/08/30 07:50:23;;;;;;;2.33;1.33;;;18.70;99.90;;;;;;5050821;28;20041;-53
2022/08/30 07:52:50;;;;;;;7.45;1.40;;;18.90;99.90;;;;;;5047305;28;20037;-53
2022/08/30 07:55:16;;;;;;;1.83;1.10;;;18.90;99.90;;;;;;5047408;28;20041;-54
2022/08/30 07:57:41;;;;;;;3.47;1.02;;;19.10;99.90;;;;;;5045616;28;20478;-51
2022/08/30 08:00:08;;;;;;;4.05;1.27;;;19.30;99.90;;;;;;5038529;28;20510;-54
2022/08/30 08:02:35;;;;;;;0.90;0.90;;;19.20;99.90;;;;;;5044830;28;20045;-53
2022/08/30 08:05:04;;;;;;;2.22;0.88;;;19.10;99.90;;;;;;5045453;28;20079;-51
2022/08/30 08:07:31;;;;;;;2.88;1.20;;;19.20;99.90;;;;;;5041978;28;20122;-50
2022/08/30 08:09:57;;;;;;;2.92;1.50;;;19.40;99.90;;;;;;5053057;28;20098;-51
2022/08/30 08:12:22;;;;;;;3.00;1.10;;;19.30;99.90;;;;;;5050666;28;20048;-52
2022/08/30 08:14:48;;;;;;;2.35;1.20;;;19.30;99.90;;;;;;5052597;28;20502;-52
2022/08/30 08:17:14;;;;;;;1.40;0.90;;;19.20;99.90;;;;;;5052780;28;20045;-53
2022/08/30 08:19:39;;;;;;;4.15;1.20;;;19.20;99.90;;;;;;5052922;28;20044;-52
2022/08/30 08:22:05;;;;;;;2.30;1.00;;;19.30;99.90;;;;;;5052535;28;20094;-53
2022/08/30 08:24:30;;;;;;;3.17;0.90;;;19.60;99.90;;;;;;5053017;28;20049;-54
2022/08/30 08:26:56;;;;;;;2.85;0.85;;;19.60;99.90;;;;;;5038448;28;20057;-52
2022/08/30 08:29:22;;;;;;;2.40;0.82;;;19.50;99.90;;;;;;5051237;28;20059;-51
2022/08/30 08:31:48;;;;;;;2.92;0.95;;;19.80;99.90;;;;;;5051648;28;20132;-53
2022/08/30 08:34:14;;;;;;;1.55;1.10;;;20.00;99.90;;;;;;5017660;28;20041;-54
2022/08/30 08:36:40;;;;;;;3.30;1.00;;;20.00;99.90;;;;;;5052701;28;20045;-53
2022/08/30 08:39:07;;;;;;;3.60;1.30;;;20.10;99.90;;;;;;5052965;28;20072;-50
2022/08/30 08:42:04;;;;;;;2.88;1.40;;;19.90;99.90;;;;;;5046267;28;20048;-51
2022/08/30 08:44:37;;;;;;;1.80;1.20;;;19.90;99.90;;;;;;5032774;28;20049;-53
2022/08/30 08:47:30;;;;;;;2.78;1.25;;;19.80;99.90;;;;;;5032673;28;20124;-53
2022/08/30 08:50:01;;;;;;;2.97;1.45;;;19.90;99.90;;;;;;5032880;28;20037;-50
2022/08/30 08:55:32;;;;;;;2.58;1.33;;;20.10;99.90;;;;;;5052276;28;20471;-52
2022/08/30 08:57:58;;;;;;;2.72;1.23;;;20.30;99.90;;;;;;5052050;28;20164;-49
2022/08/30 09:00:24;;;;;;;2.75;1.30;;;20.30;99.90;;;;;;5051543;28;20132;-51
2022/08/30 09:02:57;;;;;;;5.25;1.30;;;20.50;99.90;;;;;;5040343;28;20053;-52
2022/08/30 09:05:26;;;;;;;1.50;1.20;;;20.60;99.90;;;;;;5032490;28;20053;-53
2022/08/30 09:08:05;;;;;;;1.90;1.30;;;20.60;99.90;;;;;;5032224;28;20041;-54
2022/08/30 09:10:32;;;;;;;2.28;1.00;;;20.60;99.90;;;;;;5031876;28;20038;-51
2022/08/30 09:12:58;;;;;;;2.65;1.25;;;20.20;99.90;;;;;;5047987;28;20037;-48
2022/08/30 09:15:30;;;;;;;2.42;1.40;;;20.20;99.90;;;;;;5051607;28;20041;-51
2022/08/30 09:17:57;;;;;;;3.13;1.35;;;20.30;99.90;;;;;;5052348;28;20094;-51
2022/08/30 09:20:29;;;;;;;2.78;1.27;;;20.30;99.90;;;;;;5051968;28;20041;-53
2022/08/30 09:22:54;;;;;;;2.83;1.20;;;20.60;99.90;;;;;;5035372;28;20045;-50
2022/08/30 09:25:25;;;;;;;1.67;1.30;;;20.70;99.90;;;;;;5032264;28;20125;-53
2022/08/30 09:27:54;;;;;;;2.50;1.50;;;20.70;99.90;;;;;;5032131;28;20049;-52
2022/08/30 09:30:24;;;;;;;2.75;1.25;;;20.80;99.90;;;;;;5032322;28;20045;-53
2022/08/30 09:33:06;;;;;;;3.65;1.40;;;20.80;99.90;;;;;;5031906;28;20041;-53
2022/08/30 09:35:47;;;;;;;3.50;1.50;;;20.90;99.90;;;;;;5032209;28;20042;-52
2022/08/30 09:38:28;;;;;;;1.98;1.25;;;21.10;99.90;;;;;;5037014;28;20044;-53
2022/08/30 09:41:18;;;;;;;1.83;1.33;;;21.00;99.90;;;;;;5049181;28;20081;-54
2022/08/30 09:43:43;;;;;;;4.05;1.58;;;20.90;99.90;;;;;;5051127;28;20085;-54
2022/08/30 09:46:10;;;;;;;1.98;1.25;;;21.00;99.90;;;;;;5041341;28;20038;-51
2022/08/30 09:48:43;;;;;;;3.28;1.33;;;21.10;99.90;;;;;;5032090;28;20045;-53
2022/08/30 09:51:14;;;;;;;2.33;1.30;;;21.10;99.90;;;;;;5039840;28;20534;-54
2022/08/30 09:53:55;;;;;;;1.77;1.38;;;20.90;99.90;;;;;;5050604;28;20045;-54
2022/08/30 09:56:49;;;;;;;3.35;1.20;;;21.10;99.90;;;;;;5051963;28;20128;-52
2022/08/30 09:59:39;;;;;;;2.53;1.20;;;20.90;99.90;;;;;;5051158;28;20041;-54
2022/08/30 10:02:18;;;;;;;3.17;1.00;;;21.20;99.90;;;;;;5044545;28;20091;-53
2022/08/30 10:05:10;;;;;;;4.80;1.13;;;21.20;99.90;;;;;;5051963;28;20120;-54
2022/08/30 10:07:39;;;;;;;4.13;1.15;;;21.40;99.90;;;;;;5049965;28;20483;-54
2022/08/30 10:10:29;;;;;;;4.85;1.00;;;21.60;99.90;;;;;;5040802;28;20158;-54
2022/08/30 10:12:54;;;;;;;2.28;1.10;;;21.60;99.90;;;;;;5041494;28;20045;-51
2022/08/30 10:15:26;;;;;;;3.85;1.35;;;21.60;99.90;;;;;;5046648;28;20037;-54
2022/08/30 10:17:58;;;;;;;2.95;1.17;;;21.70;99.90;;;;;;5039609;28;20045;-51
2022/08/30 10:20:40;;;;;;;2.53;1.20;;;21.60;99.60;;;;;;5043519;28;20408;-54
2022/08/30 10:23:10;;;;;;;1.23;0.90;;;21.70;99.90;;;;;;5047446;28;20057;-53
2022/08/30 10:25:44;;;;;;;2.60;0.98;;;21.70;99.20;;;;;;5049280;28;20904;-52
2022/08/30 10:28:28;;;;;;;0.95;0.90;;;21.60;98.30;;;;;;5051149;28;20395;-53
2022/08/30 10:31:01;;;;;;;4.35;1.02;;;21.70;97.60;;;;;;5042621;28;20132;-54
2022/08/30 10:33:35;;;;;;;1.63;0.98;;;21.60;98.20;;;;;;5042735;28;20041;-55
2022/08/30 10:36:04;;;;;;;2.15;1.10;;;21.80;98.60;;;;;;5037147;28;20046;-53
2022/08/30 10:38:34;;;;;;;2.60;1.30;;;21.90;98.20;;;;;;5038729;28;20040;-51
2022/08/30 10:41:12;;;;;;;1.88;1.10;;;22.00;98.50;;;;;;5054724;28;20049;-53
2022/08/30 10:43:53;;;;;;;2.45;0.93;;;22.00;98.30;;;;;;5041936;28;20463;-53
2022/08/30 10:46:57;;;;;;;1.50;1.02;;;22.00;97.20;;;;;;5052388;28;20043;-53
2022/08/30 10:49:26;;;;;;;2.10;1.00;;;22.10;96.40;;;;;;5038627;28;20041;-54
2022/08/30 10:52:34;;;;;;;3.35;1.00;;;22.30;96.50;;;;;;5046213;28;20045;-51
2022/08/30 10:55:08;;;;;;;1.90;1.10;;;22.10;95.50;;;;;;5036572;28;20049;-53
2022/08/30 10:57:34;;;;;;;1.98;1.10;;;22.10;96.10;;;;;;5050364;28;21915;-49
2022/08/30 11:00:09;;;;;;;1.35;1.05;;;22.30;95.80;;;;;;5045236;28;20041;-53
2022/08/30 11:02:38;;;;;;;2.58;1.20;;;22.10;95.80;;;;;;5044468;28;20540;-55
2022/08/30 11:05:33;;;;;;;1.13;1.02;;;22.30;95.70;;;;;;5042991;28;20073;-53
2022/08/30 11:08:18;;;;;;;2.08;1.00;;;22.30;95.30;;;;;;5046524;28;20037;-54
2022/08/30 11:11:04;;;;;;;2.58;1.17;;;22.10;95.00;;;;;;5041765;28;20411;-54
2022/08/30 11:13:31;;;;;;;2.80;1.13;;;22.50;95.70;;;;;;5054000;28;20542;-55
2022/08/30 11:16:03;;;;;;;1.33;1.00;;;22.50;95.90;;;;;;5050743;28;20044;-54
2022/08/30 11:18:41;;;;;;;1.42;0.82;;;22.30;95.40;;;;;;5043104;28;20160;-53
2022/08/30 11:21:33;;;;;;;1.70;1.00;;;22.40;93.20;;;;;;5049287;28;20052;-54
2022/08/30 11:24:03;;;;;;;3.75;1.30;;;22.40;93.90;;;;;;5048193;28;20033;-55
2022/08/30 11:26:43;;;;;;;1.88;1.20;;;22.50;92.90;;;;;;5047946;28;20041;-55
2022/08/30 11:29:42;;;;;;;3.63;1.10;;;22.40;92.50;;;;;;5046890;28;20045;-50
2022/08/30 11:32:10;;;;;;;3.28;1.20;;;22.40;92.70;;;;;;5047802;28;20037;-52
2022/08/30 11:34:45;;;;;;;2.00;1.30;;;22.70;93.20;;;;;;5046488;28;20154;-55
2022/08/30 11:37:37;;;;;;;2.83;1.17;;;22.70;92.20;;;;;;5043137;28;20045;-55
2022/08/30 11:40:23;;;;;;;3.65;1.02;;;23.00;92.50;;;;;;5045532;28;20052;-54
2022/08/30 11:42:53;;;;;;;3.90;1.40;;;23.00;92.70;;;;;;5033426;28;20496;-53
2022/08/30 11:45:42;;;;;;;2.95;1.25;;;22.90;93.30;;;;;;5038255;28;20033;-54
2022/08/30 11:48:39;;;;;;;2.38;1.20;;;23.10;92.70;;;;;;5042238;28;20117;-54
2022/08/30 11:51:26;;;;;;;1.20;0.90;;;23.20;92.60;;;;;;5041783;28;20063;-53
2022/08/30 11:54:04;;;;;;;2.75;1.08;;;23.10;92.40;;;;;;5033815;28;20056;-53
2022/08/30 11:56:51;;;;;;;2.58;1.10;;;23.30;93.00;;;;;;5036193;28;20063;-53
2022/08/30 11:59:45;;;;;;;2.35;1.27;;;23.40;93.10;;;;;;5046916;28;20067;-53
2022/08/30 12:02:49;;;;;;;1.58;1.00;;;23.50;92.80;;;;;;5041929;28;20051;-54
2022/08/30 12:05:50;;;;;;;1.23;1.00;;;23.50;92.40;;;;;;5052852;28;20048;-53
2022/08/30 12:08:19;;;;;;;2.88;1.08;;;23.50;91.90;;;;;;5034656;28;20051;-55
2022/08/30 12:10:52;;;;;;;1.20;1.00;;;23.50;91.50;;;;;;5033023;28;20204;-52
2022/08/30 12:13:33;;;;;;;2.00;0.95;;;23.40;91.50;;;;;;5033298;28;20041;-54
2022/08/30 12:16:34;;;;;;;2.53;1.00;;;23.40;90.90;;;;;;5036917;28;20041;-54
2022/08/30 12:19:17;;;;;;;2.67;1.10;;;23.20;91.40;;;;;;5052233;28;20044;-52
2022/08/30 12:21:52;;;;;;;1.38;0.77;;;23.20;91.40;;;;;;5045691;28;20053;-49
2022/08/30 12:24:27;;;;;;;1.95;1.17;;;23.50;92.20;;;;;;5033428;28;20045;-54
2022/08/30 12:26:53;;;;;;;2.22;1.10;;;23.70;92.40;;;;;;5039845;28;20237;-53
2022/08/30 12:29:21;;;;;;;1.67;1.10;;;23.60;91.40;;;;;;5052882;28;20125;-55
2022/08/30 12:31:56;;;;;;;1.35;1.00;;;23.50;91.40;;;;;;5047196;28;20399;-55
2022/08/30 12:34:44;;;;;;;1.45;0.90;;;23.70;91.70;;;;;;5033100;28;20056;-55
2022/08/30 12:37:32;;;;;;;1.30;1.00;;;23.80;91.60;;;;;;5029188;28;20049;-54
2022/08/30 12:40:15;;;;;;;1.60;1.05;;;23.70;91.40;;;;;;5033375;28;20052;-53
2022/08/30 12:42:50;;;;;;;1.52;0.90;;;23.80;91.40;;;;;;5042853;28;20078;-54
2022/08/30 12:45:20;;;;;;;2.33;1.20;;;23.70;91.30;;;;;;5048555;28;20113;-49
2022/08/30 12:48:00;;;;;;;4.47;1.10;;;23.90;91.30;;;;;;5043423;28;20037;-55
2022/08/30 12:50:30;;;;;;;2.33;0.90;;;23.70;91.10;;;;;;5051492;28;20460;-53
2022/08/30 12:53:08;;;;;;;1.48;0.70;;;23.60;91.10;;;;;;5051701;28;20120;-54
2022/08/30 12:55:48;;;;;;;1.75;1.05;;;23.80;91.20;;;;;;5050469;28;20044;-55
2022/08/30 12:58:14;;;;;;;2.33;0.82;;;23.90;91.20;;;;;;5049331;28;20044;-55
2022/08/30 13:00:49;;;;;;;1.65;1.00;;;23.80;91.00;;;;;;5050690;28;20047;-54
2022/08/30 13:03:35;;;;;;;3.42;1.10;;;24.10;91.00;;;;;;5038199;28;20080;-53
2022/08/30 13:06:02;;;;;;;1.00;0.80;;;24.00;90.70;;;;;;5038445;28;20411;-58
2022/08/30 13:08:35;;;;;;;2.80;0.80;;;24.20;91.50;;;;;;5042488;28;20082;-57
2022/08/30 13:11:03;;;;;;;2.35;0.80;;;24.10;91.00;;;;;;5045398;28;20041;-57